Portada
METAR-TAF:

METAR-TAF

Aeropuertos :

Aeropuerto Internacional de Jartum

Jartum, Sudán

latitud: 15-36N, longitud: 032-33E, altitud: 382 m

Observación

El informe se hizo hace 11 minutos, a las 17:30 UTC
Viento 4 kt del norte-noroeste
Temperatura 27°C
Humedad 26%
Presión 1011 hPa
Visibilidad 10 km o más
sin nubes por debajo de 1500 m y sin presencia de cumulonimbus.

METAR: HSSS 111730Z 34004KT CAVOK 27/06 Q1011 NOSIG

Hora: 19:41 (17:41 UTC)

Pronóstico

El informe se hizo hace 41 minutos, a las 17:00 UTC
Pronóstico válido del 11 a las 18 UTC al 12 a las 24 UTC
Viento 8 kt del norte con ráfagas de 18 kt
Visibilidad 10 km o más
sin nubes por debajo de 1500 m y sin presencia de cumulonimbus.

TAF: HSSS 111700Z 1118/1224 36008G18KT CAVOK

Observaciones y pronósticos meteorológicos de más de 4000 aeropuertos (mensajes METAR y TAF).

Los puntos amarillos y rojos representan las estaciones disponibles.

Ponga el ratón en el punto deseado para ver el nombre de la estación.

Haga clic para ver las observaciones y los pronósticos meteorológicos.

Para cambiar el mapa : haga clic en los botones verdes con una cruz de color negro para hacer un zoom, en el botón verde con un guión para alejar o en las flechas verdes para mapas adyacentes.


METAR-TAF: